createdAt,value
2018-04-08T00:01:25.093Z,48.10
2018-04-08T00:03:52.716Z,48.10
2018-04-08T00:06:20.329Z,49.20
2018-04-08T00:08:48.708Z,47.20
2018-04-08T00:11:17.088Z,45.20
2018-04-08T00:13:44.704Z,45.20
2018-04-08T00:16:12.330Z,44.90
2018-04-08T00:18:40.716Z,48.60
2018-04-08T00:21:08.337Z,48.50
2018-04-08T00:23:35.951Z,52.50
2018-04-08T00:26:03.578Z,53.40
2018-04-08T00:28:31.200Z,51.10
2018-04-08T00:30:58.808Z,52.90
2018-04-08T00:33:26.423Z,51.50
2018-04-08T00:35:54.040Z,56.50
2018-04-08T00:38:21.651Z,56.60
2018-04-08T00:40:49.276Z,58.00
2018-04-08T00:43:16.909Z,57.20
2018-04-08T00:45:44.533Z,56.60
2018-04-08T00:48:12.928Z,59.80
2018-04-08T00:50:41.308Z,60.70
2018-04-08T00:53:08.937Z,60.70
2018-04-08T00:55:36.563Z,53.30
2018-04-08T00:58:04.184Z,58.80
2018-04-08T01:00:31.812Z,53.30
2018-04-08T01:02:59.436Z,56.70
2018-04-08T01:05:27.057Z,53.50
2018-04-08T01:07:54.673Z,54.60
2018-04-08T01:10:22.292Z,59.60
2018-04-08T01:12:49.913Z,60.90
2018-04-08T01:15:17.528Z,59.90
2018-04-08T01:17:45.914Z,56.90
2018-04-08T01:20:13.525Z,56.90
2018-04-08T01:22:41.140Z,60.70
2018-04-08T01:25:08.761Z,62.10
2018-04-08T01:27:36.389Z,62.70
2018-04-08T01:30:04.005Z,63.20
2018-04-08T01:32:31.628Z,56.20
2018-04-08T01:35:00.017Z,63.60
2018-04-08T01:37:28.414Z,61.10
2018-04-08T01:39:56.797Z,61.20
2018-04-08T01:42:25.179Z,61.60
2018-04-08T01:44:53.560Z,63.40
2018-04-08T01:47:21.177Z,63.40
2018-04-08T01:49:48.791Z,60.00
2018-04-08T01:52:16.414Z,60.70
2018-04-08T01:54:44.033Z,61.40
2018-04-08T01:57:11.653Z,58.80
2018-04-08T01:59:39.268Z,62.90
2018-04-08T02:02:06.888Z,57.60
2018-04-08T02:04:34.512Z,55.30
2018-04-08T02:07:02.139Z,54.20
2018-04-08T02:09:30.532Z,56.70
2018-04-08T02:11:58.916Z,56.50
2018-04-08T02:14:26.539Z,56.40
2018-04-08T02:16:54.164Z,52.50
2018-04-08T02:19:21.785Z,53.30
2018-04-08T02:21:49.404Z,53.00
2018-04-08T02:24:17.025Z,54.40
2018-04-08T02:26:44.638Z,53.10
2018-04-08T02:29:12.256Z,52.20
2018-04-08T02:31:40.645Z,59.20
2018-04-08T02:34:09.033Z,55.00
2018-04-08T02:36:37.424Z,57.00
2018-04-08T02:39:05.817Z,53.50
2018-04-08T02:41:33.442Z,53.50
2018-04-08T02:44:01.057Z,52.80
2018-04-08T02:46:28.689Z,55.80
2018-04-08T02:48:56.304Z,54.50
2018-04-08T02:51:23.921Z,51.70
2018-04-08T02:53:52.312Z,52.60
2018-04-08T02:56:20.897Z,51.30
2018-04-08T02:58:49.287Z,52.70
2018-04-08T03:01:17.681Z,50.30
2018-04-08T03:03:45.305Z,50.30
2018-04-08T03:06:12.924Z,51.50
2018-04-08T03:08:40.536Z,52.70
2018-04-08T03:11:08.189Z,49.70
2018-04-08T03:13:35.813Z,49.90
2018-04-08T03:16:03.434Z,51.20
2018-04-08T03:18:31.077Z,51.20
2018-04-08T03:20:58.693Z,49.20
2018-04-08T03:23:27.101Z,46.80
2018-04-08T03:25:54.720Z,46.70
2018-04-08T03:28:22.338Z,48.30
2018-04-08T03:30:50.066Z,47.70
2018-04-08T03:33:17.689Z,45.80
2018-04-08T03:35:45.315Z,47.00
2018-04-08T03:38:12.941Z,46.40
2018-04-08T03:40:41.412Z,45.80
2018-04-08T03:43:09.018Z,44.50
2018-04-08T03:45:36.629Z,46.80
2018-04-08T03:48:04.252Z,46.30
2018-04-08T03:50:32.635Z,45.10
2018-04-08T03:53:01.030Z,45.30
2018-04-08T03:55:29.412Z,48.30
2018-04-08T03:57:57.114Z,48.30
2018-04-08T04:00:24.700Z,49.70
2018-04-08T04:02:52.316Z,52.30
2018-04-08T04:05:19.935Z,53.10
2018-04-08T04:07:47.551Z,55.60
2018-04-08T04:10:15.176Z,55.30
2018-04-08T04:12:42.788Z,56.70
2018-04-08T04:15:10.408Z,59.00
2018-04-08T04:17:38.025Z,56.70
2018-04-08T04:20:17.672Z,58.10
2018-04-08T04:22:57.108Z,57.40
2018-04-08T04:28:28.845Z,65.40
2018-04-08T04:30:57.360Z,63.50
2018-04-08T04:33:24.973Z,63.40
2018-04-08T04:35:52.601Z,67.00
2018-04-08T04:38:20.232Z,65.40
2018-04-08T04:40:47.843Z,68.50
2018-04-08T04:43:15.463Z,66.80
2018-04-08T04:45:43.183Z,68.60
2018-04-08T04:48:10.699Z,64.20
2018-04-08T04:50:38.328Z,66.40
2018-04-08T04:53:05.960Z,70.50
2018-04-08T04:55:33.595Z,68.00
2018-04-08T04:58:01.981Z,67.60
2018-04-08T05:00:29.600Z,67.60
2018-04-08T05:02:57.223Z,66.70
2018-04-08T05:05:24.845Z,65.80
2018-04-08T05:07:52.463Z,67.40
2018-04-08T05:10:20.080Z,66.90
2018-04-08T05:12:47.696Z,66.80
2018-04-08T05:15:15.307Z,66.80
2018-04-08T05:17:42.936Z,68.40
2018-04-08T05:20:10.548Z,70.90
2018-04-08T05:22:38.971Z,66.10
2018-04-08T05:25:06.580Z,66.00
2018-04-08T05:27:34.965Z,56.80
2018-04-08T05:30:02.592Z,56.80
2018-04-08T05:32:30.316Z,54.10
2018-04-08T05:34:58.703Z,56.20
2018-04-08T05:37:27.083Z,60.80
2018-04-08T05:39:55.474Z,61.20
2018-04-08T05:42:23.864Z,59.00
2018-04-08T05:44:51.484Z,58.90
2018-04-08T05:47:19.100Z,61.40
2018-04-08T05:49:46.734Z,62.20
2018-04-08T05:52:19.100Z,63.60
2018-04-08T05:54:46.725Z,66.30
2018-04-08T05:57:14.348Z,69.00
2018-04-08T05:59:41.992Z,67.10
2018-04-08T06:02:09.602Z,71.40
2018-04-08T06:04:37.419Z,65.90
2018-04-08T06:07:05.005Z,70.10
2018-04-08T06:09:32.623Z,67.70
2018-04-08T06:12:00.244Z,65.80
2018-04-08T06:14:28.636Z,65.30
2018-04-08T06:16:57.026Z,70.30
2018-04-08T06:19:24.650Z,71.00
2018-04-08T06:21:52.268Z,54.70
2018-04-08T06:24:19.897Z,54.10
2018-04-08T06:26:47.516Z,51.80
2018-04-08T06:29:15.136Z,54.20
2018-04-08T06:31:42.756Z,51.60
2018-04-08T06:34:10.381Z,50.00
2018-04-08T06:36:39.764Z,50.00
2018-04-08T06:39:07.385Z,49.80
2018-04-08T06:41:35.006Z,50.10
2018-04-08T06:44:02.621Z,46.50
2018-04-08T06:46:30.249Z,48.70
2018-04-08T06:48:58.645Z,47.30
2018-04-08T06:51:26.266Z,47.30
2018-04-08T06:53:53.880Z,48.40
2018-04-08T06:56:21.504Z,48.50
2018-04-08T06:58:49.129Z,48.00
2018-04-08T07:01:16.752Z,46.60
2018-04-08T07:03:44.377Z,45.20
2018-04-08T07:06:12.005Z,45.40
2018-04-08T07:08:39.623Z,45.40
2018-04-08T07:11:07.389Z,47.60
2018-04-08T07:13:34.977Z,48.90
2018-04-08T07:16:02.611Z,48.60
2018-04-08T07:18:30.292Z,46.50
2018-04-08T07:20:57.856Z,44.30
2018-04-08T07:23:25.480Z,43.30
2018-04-08T07:25:53.096Z,46.10
2018-04-08T07:28:20.725Z,42.90
2018-04-08T07:30:48.356Z,43.70
2018-04-08T07:33:16.748Z,43.40
2018-04-08T07:35:44.370Z,43.40
2018-04-08T07:38:11.984Z,45.10
2018-04-08T07:40:39.624Z,44.70
2018-04-08T07:43:07.264Z,44.50
2018-04-08T07:45:34.898Z,42.40
2018-04-08T07:48:03.470Z,44.10
2018-04-08T07:50:34.088Z,43.50
2018-04-08T07:53:02.092Z,44.60
2018-04-08T07:55:31.123Z,44.70
2018-04-08T07:58:01.502Z,45.10
2018-04-08T08:00:29.880Z,42.10
2018-04-08T08:02:58.411Z,45.50
2018-04-08T08:05:26.161Z,43.80
2018-04-08T08:07:54.842Z,43.60
2018-04-08T08:10:22.636Z,43.90
2018-04-08T08:12:50.251Z,43.70
2018-04-08T08:15:25.989Z,40.90
2018-04-08T08:17:53.631Z,40.90
2018-04-08T08:20:21.736Z,40.90
2018-04-08T08:22:49.421Z,39.10
2018-04-08T08:25:17.229Z,39.60
2018-04-08T08:27:45.803Z,41.20
2018-04-08T08:30:13.678Z,41.40
2018-04-08T08:32:42.342Z,37.60
2018-04-08T08:35:11.043Z,36.30
2018-04-08T08:37:40.706Z,37.70
2018-04-08T08:40:10.535Z,37.70
2018-04-08T08:42:38.363Z,38.20
2018-04-08T08:45:06.607Z,37.50
2018-04-08T08:47:34.297Z,37.30
2018-04-08T08:50:02.099Z,37.30
2018-04-08T08:52:31.725Z,39.90
2018-04-08T08:54:59.539Z,35.40
2018-04-08T09:00:05.872Z,40.20
2018-04-08T09:02:33.502Z,36.10
2018-04-08T09:05:01.176Z,40.30
2018-04-08T09:07:28.805Z,36.70
2018-04-08T09:09:57.195Z,32.90
2018-04-08T09:12:24.823Z,32.90
2018-04-08T09:14:53.408Z,33.90
2018-04-08T09:17:21.025Z,34.50
2018-04-08T09:19:48.647Z,34.50
2018-04-08T09:22:16.267Z,34.20
2018-04-08T09:24:43.897Z,35.80
2018-04-08T09:27:12.280Z,35.70
2018-04-08T09:29:40.718Z,30.30
2018-04-08T09:32:08.333Z,30.20
2018-04-08T09:34:36.756Z,30.40
2018-04-08T09:37:06.481Z,31.00
2018-04-08T09:39:34.119Z,30.40
2018-04-08T09:42:01.848Z,32.90
2018-04-08T09:44:29.701Z,30.40
2018-04-08T09:46:57.359Z,30.00
2018-04-08T09:49:25.016Z,30.70
2018-04-08T09:51:52.666Z,30.80
2018-04-08T09:54:20.318Z,29.40
2018-04-08T09:56:48.726Z,30.30
2018-04-08T09:59:16.918Z,30.40
2018-04-08T10:01:44.768Z,30.00
2018-04-08T10:04:12.466Z,29.60
2018-04-08T10:06:40.092Z,32.40
2018-04-08T10:09:07.721Z,33.00
2018-04-08T10:11:35.347Z,29.20
2018-04-08T10:14:02.965Z,28.10
2018-04-08T10:16:31.369Z,26.50
2018-04-08T10:18:58.996Z,26.40
2018-04-08T10:21:26.620Z,27.10
2018-04-08T10:23:54.249Z,27.20
2018-04-08T10:26:22.648Z,29.30
2018-04-08T10:28:50.269Z,29.10
2018-04-08T10:31:17.897Z,27.90
2018-04-08T10:33:45.525Z,28.20
2018-04-08T10:36:13.920Z,27.30
2018-04-08T10:38:41.545Z,27.30
2018-04-08T10:41:09.164Z,28.10
2018-04-08T10:43:36.793Z,27.60
2018-04-08T10:46:04.437Z,28.60
2018-04-08T10:48:32.061Z,28.70
2018-04-08T10:50:59.684Z,26.50
2018-04-08T10:53:27.312Z,25.80
2018-04-08T10:55:54.944Z,26.10
2018-04-08T10:58:23.338Z,26.90
2018-04-08T11:00:50.974Z,27.00
2018-04-08T11:03:22.005Z,24.80
2018-04-08T11:05:50.436Z,23.30
2018-04-08T11:08:18.061Z,23.30
2018-04-08T11:10:45.697Z,22.20
2018-04-08T11:13:13.324Z,23.20
2018-04-08T11:15:40.948Z,20.60
2018-04-08T11:18:08.583Z,22.80
2018-04-08T11:20:36.220Z,22.70
2018-04-08T11:23:03.842Z,22.90
2018-04-08T11:25:31.464Z,23.90
2018-04-08T11:27:59.088Z,24.30
2018-04-08T11:30:26.737Z,23.70
2018-04-08T11:32:54.345Z,21.60
2018-04-08T11:35:21.972Z,21.90
2018-04-08T11:37:49.603Z,24.70
2018-04-08T11:40:17.225Z,22.10
2018-04-08T11:42:46.619Z,22.10
2018-04-08T11:45:14.256Z,21.80
2018-04-08T11:47:41.884Z,21.50
2018-04-08T11:50:09.558Z,20.20
2018-04-08T11:52:37.937Z,22.00
2018-04-08T11:55:06.333Z,23.50
2018-04-08T11:57:33.964Z,23.30
2018-04-08T12:00:02.380Z,22.50
2018-04-08T12:02:30.752Z,22.90
2018-04-08T12:04:58.381Z,22.90
2018-04-08T12:07:26.004Z,23.00
2018-04-08T12:09:53.628Z,22.60
2018-04-08T12:12:22.022Z,20.30
2018-04-08T12:14:49.649Z,20.40
2018-04-08T12:17:17.268Z,21.10
2018-04-08T12:19:44.900Z,22.70
2018-04-08T12:22:12.536Z,22.30
2018-04-08T12:24:40.180Z,23.50
2018-04-08T12:27:07.822Z,21.50
2018-04-08T12:29:36.248Z,20.30
2018-04-08T12:32:03.929Z,20.10
2018-04-08T12:34:31.520Z,21.40
2018-04-08T12:36:59.148Z,21.50
2018-04-08T12:39:26.773Z,22.10
2018-04-08T12:41:54.413Z,23.20
2018-04-08T12:44:22.804Z,21.80
2018-04-08T12:46:51.202Z,21.40
2018-04-08T12:49:19.590Z,20.50
2018-04-08T12:51:48.013Z,23.60
2018-04-08T12:54:15.602Z,23.50
2018-04-08T12:57:02.433Z,20.50
2018-04-08T12:59:30.826Z,20.40
2018-04-08T13:01:58.447Z,20.40
2018-04-08T13:04:26.084Z,20.60
2018-04-08T13:06:53.717Z,20.80
2018-04-08T13:09:22.102Z,21.30
2018-04-08T13:11:49.724Z,21.20
2018-04-08T13:14:19.362Z,21.90
2018-04-08T13:16:46.997Z,23.80
2018-04-08T13:19:14.616Z,22.40
2018-04-08T13:21:55.788Z,22.90
2018-04-08T13:24:24.184Z,22.00
2018-04-08T13:26:51.807Z,21.90
2018-04-08T13:29:19.432Z,22.30
2018-04-08T13:31:47.054Z,23.70
2018-04-08T13:34:15.440Z,21.80
2018-04-08T13:36:45.857Z,22.10
2018-04-08T13:39:13.476Z,22.10
2018-04-08T13:41:41.106Z,21.80
2018-04-08T13:44:09.497Z,20.50
2018-04-08T13:46:37.129Z,20.50
2018-04-08T13:49:04.756Z,20.50
2018-04-08T13:51:32.386Z,21.60
2018-04-08T13:54:00.780Z,21.30
2018-04-08T13:56:41.214Z,21.30
2018-04-08T13:59:08.841Z,21.40
2018-04-08T14:01:36.469Z,22.00
2018-04-08T14:04:04.116Z,21.80
2018-04-08T14:06:31.720Z,21.80
2018-04-08T14:08:59.344Z,22.80
2018-04-08T14:11:26.970Z,23.70
2018-04-08T14:13:54.583Z,23.80
2018-04-08T14:16:22.979Z,23.60
2018-04-08T14:18:51.461Z,23.90
2018-04-08T14:21:23.095Z,23.00
2018-04-08T14:23:50.724Z,23.00
2018-04-08T14:26:18.345Z,24.00
2018-04-08T14:28:46.732Z,21.40
2018-04-08T14:31:15.128Z,21.50
2018-04-08T14:33:42.748Z,21.40
2018-04-08T14:36:10.381Z,22.10
2018-04-08T14:38:38.039Z,22.60
2018-04-08T14:41:05.653Z,22.50
2018-04-08T14:43:39.140Z,23.90
2018-04-08T14:46:06.765Z,23.60
2018-04-08T14:48:34.387Z,24.00
2018-04-08T14:51:17.102Z,24.40
2018-04-08T14:53:44.726Z,23.90
2018-04-08T14:56:12.345Z,24.10
2018-04-08T14:58:40.734Z,24.20
2018-04-08T15:01:17.262Z,24.00
2018-04-08T15:03:44.901Z,23.90
2018-04-08T15:06:22.913Z,24.50
2018-04-08T15:08:50.539Z,25.10
2018-04-08T15:11:18.928Z,24.20
2018-04-08T15:13:47.476Z,24.20
2018-04-08T15:16:15.095Z,24.40
2018-04-08T15:18:42.725Z,24.90
2018-04-08T15:21:11.111Z,26.40
2018-04-08T15:23:46.158Z,26.70
2018-04-08T15:26:14.544Z,26.80
2018-04-08T15:28:42.168Z,26.70
2018-04-08T15:31:09.809Z,27.20
2018-04-08T15:33:37.439Z,27.40
2018-04-08T15:36:05.885Z,27.40
2018-04-08T15:38:37.012Z,27.30
2018-04-08T15:41:04.638Z,27.50
2018-04-08T15:43:32.330Z,27.20
2018-04-08T15:45:59.945Z,27.60
2018-04-08T15:48:27.597Z,27.30
2018-04-08T15:50:55.211Z,26.00
2018-04-08T15:53:22.843Z,26.60
2018-04-08T15:55:50.466Z,26.00
2018-04-08T15:58:18.088Z,26.60
2018-04-08T16:00:46.495Z,29.10
2018-04-08T16:03:14.504Z,29.00
2018-04-08T16:05:42.124Z,29.00
2018-04-08T16:08:09.749Z,29.40
2018-04-08T16:10:37.382Z,29.20
2018-04-08T16:13:04.997Z,30.90
2018-04-08T16:15:32.628Z,29.20
2018-04-08T16:18:00.256Z,28.80
2018-04-08T16:20:27.889Z,29.60
2018-04-08T16:22:55.520Z,29.70
2018-04-08T16:28:11.870Z,29.50
2018-04-08T16:30:39.594Z,30.30
2018-04-08T16:33:07.201Z,30.40
2018-04-08T16:35:34.832Z,30.60
2018-04-08T16:38:02.462Z,30.50
2018-04-08T16:40:38.147Z,31.70
2018-04-08T16:43:05.763Z,31.70
2018-04-08T16:45:34.164Z,32.30
2018-04-08T16:48:02.556Z,32.40
2018-04-08T16:50:30.571Z,32.60
2018-04-08T16:52:58.487Z,31.90
2018-04-08T16:55:26.187Z,33.50
2018-04-08T16:57:53.804Z,35.60
2018-04-08T17:00:21.429Z,33.00
2018-04-08T17:02:49.052Z,34.80
2018-04-08T17:05:17.452Z,37.80
2018-04-08T17:07:45.101Z,37.90
2018-04-08T17:10:13.484Z,39.70
2018-04-08T17:12:41.872Z,41.00
2018-04-08T17:15:09.496Z,40.90
2018-04-08T17:17:37.122Z,41.20
2018-04-08T17:20:05.661Z,45.60
2018-04-08T17:22:40.144Z,46.70
2018-04-08T17:25:07.780Z,44.60
2018-04-08T17:27:35.401Z,43.80
2018-04-08T17:30:03.026Z,42.80
2018-04-08T17:32:30.643Z,45.20
2018-04-08T17:34:58.273Z,44.60
2018-04-08T17:37:25.887Z,44.10
2018-04-08T17:39:53.525Z,43.80
2018-04-08T17:42:21.144Z,48.00
2018-04-08T17:44:48.784Z,47.90
2018-04-08T17:47:17.173Z,52.10
2018-04-08T17:49:45.566Z,51.90
2018-04-08T17:52:13.959Z,50.80
2018-04-08T17:54:41.585Z,50.80
2018-04-08T17:57:09.212Z,52.10
2018-04-08T17:59:36.830Z,51.70
2018-04-08T18:02:04.448Z,54.40
2018-04-08T18:04:32.078Z,53.80
2018-04-08T18:07:00.466Z,56.30
2018-04-08T18:09:28.093Z,56.20
2018-04-08T18:11:55.726Z,56.80
2018-04-08T18:14:23.375Z,56.00
2018-04-08T18:16:51.043Z,58.20
2018-04-08T18:19:18.698Z,59.00
2018-04-08T18:21:47.110Z,56.30
2018-04-08T18:24:14.773Z,56.20
2018-04-08T18:26:42.433Z,58.60
2018-04-08T18:29:10.097Z,59.70
2018-04-08T18:31:37.749Z,58.60
2018-04-08T18:34:06.154Z,59.20
2018-04-08T18:36:33.812Z,59.20
2018-04-08T18:39:01.467Z,60.50
2018-04-08T18:41:29.115Z,59.00
2018-04-08T18:43:56.891Z,59.30
2018-04-08T18:46:24.544Z,57.80
2018-04-08T18:48:52.191Z,59.40
2018-04-08T18:51:19.836Z,59.70
2018-04-08T18:53:47.491Z,58.10
2018-04-08T18:56:15.147Z,60.10
2018-04-08T18:58:42.811Z,59.50
2018-04-08T19:01:10.479Z,60.40
2018-04-08T19:03:38.918Z,62.40
2018-04-08T19:06:06.555Z,62.30
2018-04-08T19:08:34.270Z,63.10
2018-04-08T19:11:01.930Z,63.30
2018-04-08T19:13:29.609Z,65.20
2018-04-08T19:15:58.065Z,65.20
2018-04-08T19:18:25.712Z,65.00
2018-04-08T19:20:53.371Z,64.80
2018-04-08T19:23:21.014Z,65.80
2018-04-08T19:25:48.690Z,65.50
2018-04-08T19:28:16.380Z,66.30
2018-04-08T19:30:44.017Z,66.30
2018-04-08T19:33:11.672Z,65.40
2018-04-08T19:35:40.124Z,68.30
2018-04-08T19:38:07.808Z,68.20
2018-04-08T19:40:35.450Z,67.70
2018-04-08T19:43:03.121Z,68.50
2018-04-08T19:45:30.790Z,66.90
2018-04-08T19:47:58.443Z,66.40
2018-04-08T19:50:26.272Z,69.30
2018-04-08T19:52:53.943Z,69.60
2018-04-08T19:55:21.623Z,70.80
2018-04-08T19:57:49.290Z,68.00
2018-04-08T20:00:17.330Z,69.60
2018-04-08T20:02:44.990Z,68.90
2018-04-08T20:05:13.402Z,68.40
2018-04-08T20:07:41.093Z,68.10
2018-04-08T20:10:08.757Z,68.50
2018-04-08T20:12:36.414Z,68.30
2018-04-08T20:15:04.066Z,67.60
2018-04-08T20:17:31.712Z,67.40
2018-04-08T20:19:59.327Z,66.10
2018-04-08T20:22:26.975Z,68.00
2018-04-08T20:24:54.617Z,66.70
2018-04-08T20:27:23.006Z,69.00
2018-04-08T20:29:50.632Z,69.10
2018-04-08T20:32:18.256Z,67.90
2018-04-08T20:34:45.891Z,67.90
2018-04-08T20:37:14.305Z,68.30
2018-04-08T20:39:41.945Z,68.30
2018-04-08T20:42:09.597Z,70.70
2018-04-08T20:44:38.071Z,69.20
2018-04-08T20:47:06.529Z,70.40
2018-04-08T20:49:34.218Z,70.30
2018-04-08T20:52:01.888Z,71.40
2018-04-08T20:54:31.057Z,71.60
2018-04-08T20:57:06.703Z,71.70
2018-04-08T20:59:34.334Z,72.20
2018-04-08T21:02:01.971Z,71.40
2018-04-08T21:04:29.580Z,71.00
2018-04-08T21:06:57.204Z,71.40
2018-04-08T21:09:24.824Z,72.40
2018-04-08T21:11:52.448Z,71.90
2018-04-08T21:14:20.844Z,72.50
2018-04-08T21:16:48.473Z,72.30
2018-04-08T21:19:16.108Z,73.90
2018-04-08T21:21:43.731Z,72.90
2018-04-08T21:24:12.125Z,73.80
2018-04-08T21:26:39.753Z,73.80
2018-04-08T21:29:07.376Z,71.80
2018-04-08T21:31:35.011Z,72.50
2018-04-08T21:34:03.409Z,72.00
2018-04-08T21:36:31.035Z,71.90
2018-04-08T21:38:58.665Z,74.50
2018-04-08T21:41:26.293Z,73.70
2018-04-08T21:43:54.685Z,74.80
2018-04-08T21:46:23.084Z,74.90
2018-04-08T21:48:50.717Z,74.80
2018-04-08T21:51:19.108Z,73.20
2018-04-08T21:53:47.501Z,71.80
2018-04-08T21:56:15.132Z,71.70
2018-04-08T21:58:42.770Z,73.60
2018-04-08T22:01:14.269Z,74.50
2018-04-08T22:03:42.663Z,75.30
2018-04-08T22:06:11.050Z,73.20
2018-04-08T22:08:39.428Z,75.50
2018-04-08T22:11:07.836Z,74.60
2018-04-08T22:13:35.456Z,74.60
2018-04-08T22:16:03.085Z,73.20
2018-04-08T22:18:30.717Z,73.20
2018-04-08T22:20:58.348Z,71.60
2018-04-08T22:23:25.974Z,72.80
2018-04-08T22:28:40.716Z,73.60
2018-04-08T22:31:08.348Z,74.60
2018-04-08T22:33:35.968Z,74.70
2018-04-08T22:36:03.600Z,75.90
2018-04-08T22:38:31.228Z,73.20
2018-04-08T22:40:58.857Z,73.00
2018-04-08T22:43:26.477Z,74.50
2018-04-08T22:45:54.104Z,74.20
2018-04-08T22:48:21.728Z,76.20
2018-04-08T22:50:50.852Z,75.60
2018-04-08T22:53:18.500Z,75.60
2018-04-08T22:55:46.892Z,76.30
2018-04-08T22:58:14.519Z,76.10
2018-04-08T23:00:42.665Z,76.90
2018-04-08T23:03:10.290Z,74.90
2018-04-08T23:05:37.928Z,74.30
2018-04-08T23:08:05.557Z,75.70
2018-04-08T23:10:33.184Z,75.00
2018-04-08T23:13:00.817Z,75.20
2018-04-08T23:15:28.452Z,75.70
2018-04-08T23:17:56.077Z,73.00
2018-04-08T23:20:23.704Z,74.80
2018-04-08T23:22:51.328Z,76.10
2018-04-08T23:25:19.721Z,75.20
2018-04-08T23:27:48.108Z,76.80
2018-04-08T23:30:15.746Z,76.80
2018-04-08T23:32:43.368Z,76.20
2018-04-08T23:35:11.025Z,78.10
2018-04-08T23:37:39.385Z,77.80
2018-04-08T23:40:07.020Z,77.60
2018-04-08T23:42:34.653Z,77.40
2018-04-08T23:45:02.278Z,76.00
2018-04-08T23:47:29.904Z,77.30
2018-04-08T23:49:57.520Z,77.70
2018-04-08T23:52:25.144Z,77.20
2018-04-08T23:54:52.777Z,78.00
2018-04-08T23:57:35.561Z,78.60
